sensor_id;sensor_type;location;lat;lon;timestamp;P1;durP1;ratioP1;P2;durP2;ratioP2
438;SDS011;206;48.782;9.252;2022-07-19T00:02:00;5.97;;;5.53;;
438;SDS011;206;48.782;9.252;2022-07-19T00:04:26;10.40;;;4.50;;
438;SDS011;206;48.782;9.252;2022-07-19T00:06:51;4.57;;;4.27;;
438;SDS011;206;48.782;9.252;2022-07-19T00:09:19;5.83;;;4.27;;
438;SDS011;206;48.782;9.252;2022-07-19T00:11:45;7.43;;;3.90;;
438;SDS011;206;48.782;9.252;2022-07-19T00:14:11;7.23;;;5.10;;
438;SDS011;206;48.782;9.252;2022-07-19T00:16:37;6.60;;;5.00;;
438;SDS011;206;48.782;9.252;2022-07-19T00:19:02;9.83;;;4.20;;
438;SDS011;206;48.782;9.252;2022-07-19T00:21:28;7.77;;;4.67;;
438;SDS011;206;48.782;9.252;2022-07-19T00:23:54;10.13;;;4.97;;
438;SDS011;206;48.782;9.252;2022-07-19T00:26:22;5.23;;;4.90;;
438;SDS011;206;48.782;9.252;2022-07-19T00:28:48;9.07;;;4.77;;
438;SDS011;206;48.782;9.252;2022-07-19T00:31:13;5.00;;;4.60;;
438;SDS011;206;48.782;9.252;2022-07-19T00:33:39;6.90;;;5.20;;
438;SDS011;206;48.782;9.252;2022-07-19T00:36:05;5.50;;;4.83;;
438;SDS011;206;48.782;9.252;2022-07-19T00:38:30;9.90;;;6.20;;
438;SDS011;206;48.782;9.252;2022-07-19T00:41:00;8.30;;;5.30;;
438;SDS011;206;48.782;9.252;2022-07-19T00:43:26;7.60;;;5.33;;
438;SDS011;206;48.782;9.252;2022-07-19T00:45:52;6.40;;;5.67;;
438;SDS011;206;48.782;9.252;2022-07-19T00:48:18;8.73;;;5.30;;
438;SDS011;206;48.782;9.252;2022-07-19T00:50:44;5.87;;;5.23;;
438;SDS011;206;48.782;9.252;2022-07-19T00:53:10;5.90;;;4.00;;
438;SDS011;206;48.782;9.252;2022-07-19T00:55:38;6.87;;;4.60;;
438;SDS011;206;48.782;9.252;2022-07-19T00:58:08;7.80;;;4.90;;
438;SDS011;206;48.782;9.252;2022-07-19T01:00:36;5.00;;;4.07;;
438;SDS011;206;48.782;9.252;2022-07-19T01:03:04;6.00;;;4.30;;
438;SDS011;206;48.782;9.252;2022-07-19T01:05:33;4.70;;;4.50;;
438;SDS011;206;48.782;9.252;2022-07-19T01:07:59;5.13;;;3.20;;
438;SDS011;206;48.782;9.252;2022-07-19T01:10:25;5.93;;;4.00;;
438;SDS011;206;48.782;9.252;2022-07-19T01:12:51;4.83;;;3.97;;
438;SDS011;206;48.782;9.252;2022-07-19T01:15:21;6.03;;;4.33;;
438;SDS011;206;48.782;9.252;2022-07-19T01:17:51;7.47;;;4.17;;
438;SDS011;206;48.782;9.252;2022-07-19T01:20:17;8.97;;;4.50;;
438;SDS011;206;48.782;9.252;2022-07-19T01:22:45;8.30;;;5.10;;
438;SDS011;206;48.782;9.252;2022-07-19T01:25:11;11.40;;;4.70;;
438;SDS011;206;48.782;9.252;2022-07-19T01:27:40;5.80;;;4.17;;
438;SDS011;206;48.782;9.252;2022-07-19T01:30:11;7.43;;;4.63;;
438;SDS011;206;48.782;9.252;2022-07-19T01:32:38;6.60;;;4.30;;
438;SDS011;206;48.782;9.252;2022-07-19T01:35:04;4.53;;;3.77;;
438;SDS011;206;48.782;9.252;2022-07-19T01:37:31;7.67;;;4.37;;
438;SDS011;206;48.782;9.252;2022-07-19T01:39:57;7.10;;;4.33;;
438;SDS011;206;48.782;9.252;2022-07-19T01:42:23;5.20;;;4.03;;
438;SDS011;206;48.782;9.252;2022-07-19T01:44:49;4.73;;;4.43;;
438;SDS011;206;48.782;9.252;2022-07-19T01:47:15;8.30;;;3.97;;
438;SDS011;206;48.782;9.252;2022-07-19T01:49:41;10.43;;;5.10;;
438;SDS011;206;48.782;9.252;2022-07-19T01:52:06;6.17;;;4.70;;
438;SDS011;206;48.782;9.252;2022-07-19T01:54:32;6.60;;;4.30;;
438;SDS011;206;48.782;9.252;2022-07-19T01:56:58;13.40;;;5.27;;
438;SDS011;206;48.782;9.252;2022-07-19T01:59:24;12.57;;;5.00;;
438;SDS011;206;48.782;9.252;2022-07-19T02:01:50;8.83;;;4.83;;
438;SDS011;206;48.782;9.252;2022-07-19T02:04:15;4.27;;;3.93;;
438;SDS011;206;48.782;9.252;2022-07-19T02:06:41;4.20;;;3.87;;
438;SDS011;206;48.782;9.252;2022-07-19T02:09:07;6.97;;;5.80;;
438;SDS011;206;48.782;9.252;2022-07-19T02:11:32;6.37;;;5.27;;
438;SDS011;206;48.782;9.252;2022-07-19T02:14:02;8.70;;;5.00;;
438;SDS011;206;48.782;9.252;2022-07-19T02:16:32;6.70;;;4.30;;
438;SDS011;206;48.782;9.252;2022-07-19T02:18:59;7.90;;;4.30;;
438;SDS011;206;48.782;9.252;2022-07-19T02:21:24;5.03;;;4.13;;
438;SDS011;206;48.782;9.252;2022-07-19T02:23:50;5.63;;;4.97;;
438;SDS011;206;48.782;9.252;2022-07-19T02:26:16;9.53;;;4.67;;
438;SDS011;206;48.782;9.252;2022-07-19T02:28:42;8.27;;;4.23;;
438;SDS011;206;48.782;9.252;2022-07-19T02:31:08;6.73;;;4.20;;
438;SDS011;206;48.782;9.252;2022-07-19T02:33:33;7.53;;;5.23;;
438;SDS011;206;48.782;9.252;2022-07-19T02:36:02;9.70;;;4.40;;
438;SDS011;206;48.782;9.252;2022-07-19T02:38:31;7.90;;;4.63;;
438;SDS011;206;48.782;9.252;2022-07-19T02:40:57;8.40;;;5.17;;
438;SDS011;206;48.782;9.252;2022-07-19T02:43:26;7.53;;;5.27;;
438;SDS011;206;48.782;9.252;2022-07-19T02:45:52;6.33;;;3.80;;
438;SDS011;206;48.782;9.252;2022-07-19T02:48:17;8.53;;;5.10;;
438;SDS011;206;48.782;9.252;2022-07-19T02:50:43;5.13;;;4.83;;
438;SDS011;206;48.782;9.252;2022-07-19T02:53:09;5.63;;;4.70;;
438;SDS011;206;48.782;9.252;2022-07-19T02:55:35;7.73;;;4.50;;
438;SDS011;206;48.782;9.252;2022-07-19T02:58:01;7.63;;;5.43;;
438;SDS011;206;48.782;9.252;2022-07-19T03:00:27;6.80;;;5.37;;
438;SDS011;206;48.782;9.252;2022-07-19T03:02:52;7.77;;;5.60;;
438;SDS011;206;48.782;9.252;2022-07-19T03:05:18;8.43;;;6.00;;
438;SDS011;206;48.782;9.252;2022-07-19T03:07:44;5.97;;;4.80;;
438;SDS011;206;48.782;9.252;2022-07-19T03:10:09;10.03;;;5.13;;
438;SDS011;206;48.782;9.252;2022-07-19T03:12:35;5.80;;;5.20;;
438;SDS011;206;48.782;9.252;2022-07-19T03:15:01;10.43;;;5.30;;
438;SDS011;206;48.782;9.252;2022-07-19T03:17:27;12.00;;;6.30;;
438;SDS011;206;48.782;9.252;2022-07-19T03:19:52;6.00;;;5.57;;
438;SDS011;206;48.782;9.252;2022-07-19T03:22:18;6.67;;;5.87;;
438;SDS011;206;48.782;9.252;2022-07-19T03:24:44;7.97;;;6.50;;
438;SDS011;206;48.782;9.252;2022-07-19T03:27:09;10.03;;;5.87;;
438;SDS011;206;48.782;9.252;2022-07-19T03:29:35;8.20;;;5.80;;
438;SDS011;206;48.782;9.252;2022-07-19T03:32:00;6.00;;;4.97;;
438;SDS011;206;48.782;9.252;2022-07-19T03:34:26;6.07;;;4.73;;
438;SDS011;206;48.782;9.252;2022-07-19T03:36:53;6.43;;;6.07;;
438;SDS011;206;48.782;9.252;2022-07-19T03:39:20;7.50;;;4.60;;
438;SDS011;206;48.782;9.252;2022-07-19T03:41:45;6.53;;;5.03;;
438;SDS011;206;48.782;9.252;2022-07-19T03:44:11;5.80;;;4.73;;
438;SDS011;206;48.782;9.252;2022-07-19T03:46:37;5.03;;;3.77;;
438;SDS011;206;48.782;9.252;2022-07-19T03:49:02;4.80;;;4.50;;
438;SDS011;206;48.782;9.252;2022-07-19T03:51:31;6.07;;;4.80;;
438;SDS011;206;48.782;9.252;2022-07-19T03:53:56;5.40;;;4.83;;
438;SDS011;206;48.782;9.252;2022-07-19T03:56:22;5.20;;;4.93;;
438;SDS011;206;48.782;9.252;2022-07-19T03:58:49;6.63;;;4.57;;
438;SDS011;206;48.782;9.252;2022-07-19T04:01:15;7.10;;;4.50;;
438;SDS011;206;48.782;9.252;2022-07-19T04:03:41;7.50;;;4.77;;
438;SDS011;206;48.782;9.252;2022-07-19T04:06:08;10.67;;;5.43;;
438;SDS011;206;48.782;9.252;2022-07-19T04:08:35;7.73;;;5.77;;
438;SDS011;206;48.782;9.252;2022-07-19T04:11:02;17.23;;;5.77;;
438;SDS011;206;48.782;9.252;2022-07-19T04:13:29;6.33;;;5.10;;
438;SDS011;206;48.782;9.252;2022-07-19T04:15:56;6.03;;;4.30;;
438;SDS011;206;48.782;9.252;2022-07-19T04:18:22;7.33;;;5.20;;
438;SDS011;206;48.782;9.252;2022-07-19T04:20:47;10.70;;;5.53;;
438;SDS011;206;48.782;9.252;2022-07-19T04:23:13;9.03;;;6.13;;
438;SDS011;206;48.782;9.252;2022-07-19T04:25:42;8.53;;;5.83;;
438;SDS011;206;48.782;9.252;2022-07-19T04:28:07;10.30;;;5.43;;
438;SDS011;206;48.782;9.252;2022-07-19T04:30:33;6.20;;;5.10;;
438;SDS011;206;48.782;9.252;2022-07-19T04:32:59;10.90;;;6.03;;
438;SDS011;206;48.782;9.252;2022-07-19T04:35:25;8.70;;;4.77;;
438;SDS011;206;48.782;9.252;2022-07-19T04:37:51;7.30;;;5.30;;
438;SDS011;206;48.782;9.252;2022-07-19T04:40:16;11.63;;;5.37;;
438;SDS011;206;48.782;9.252;2022-07-19T04:42:42;10.00;;;5.63;;
438;SDS011;206;48.782;9.252;2022-07-19T04:45:08;13.30;;;5.33;;
438;SDS011;206;48.782;9.252;2022-07-19T04:47:36;7.50;;;5.03;;
438;SDS011;206;48.782;9.252;2022-07-19T04:50:02;6.93;;;5.23;;
438;SDS011;206;48.782;9.252;2022-07-19T04:52:28;10.47;;;4.50;;
438;SDS011;206;48.782;9.252;2022-07-19T04:54:53;6.00;;;5.40;;
438;SDS011;206;48.782;9.252;2022-07-19T04:57:19;6.40;;;5.40;;
438;SDS011;206;48.782;9.252;2022-07-19T04:59:44;5.43;;;5.13;;
438;SDS011;206;48.782;9.252;2022-07-19T05:02:10;6.97;;;4.57;;
438;SDS011;206;48.782;9.252;2022-07-19T05:04:36;5.50;;;4.90;;
438;SDS011;206;48.782;9.252;2022-07-19T05:07:01;6.60;;;4.73;;
438;SDS011;206;48.782;9.252;2022-07-19T05:09:28;5.30;;;4.43;;
438;SDS011;206;48.782;9.252;2022-07-19T05:11:54;4.60;;;4.30;;
438;SDS011;206;48.782;9.252;2022-07-19T05:14:21;7.30;;;4.60;;
438;SDS011;206;48.782;9.252;2022-07-19T05:16:47;4.40;;;3.90;;
438;SDS011;206;48.782;9.252;2022-07-19T05:19:14;7.00;;;4.63;;
438;SDS011;206;48.782;9.252;2022-07-19T05:21:40;5.63;;;4.83;;
438;SDS011;206;48.782;9.252;2022-07-19T05:24:06;6.00;;;4.60;;
438;SDS011;206;48.782;9.252;2022-07-19T05:26:34;8.67;;;4.70;;
438;SDS011;206;48.782;9.252;2022-07-19T05:29:00;5.73;;;5.07;;
438;SDS011;206;48.782;9.252;2022-07-19T05:31:27;9.90;;;4.40;;
438;SDS011;206;48.782;9.252;2022-07-19T05:33:53;4.30;;;4.00;;
438;SDS011;206;48.782;9.252;2022-07-19T05:36:21;6.00;;;4.53;;
438;SDS011;206;48.782;9.252;2022-07-19T05:38:47;8.57;;;3.80;;
438;SDS011;206;48.782;9.252;2022-07-19T05:41:12;10.30;;;4.20;;
438;SDS011;206;48.782;9.252;2022-07-19T05:43:41;11.27;;;4.40;;
438;SDS011;206;48.782;9.252;2022-07-19T05:46:06;5.90;;;4.80;;
438;SDS011;206;48.782;9.252;2022-07-19T05:48:32;3.90;;;3.70;;
438;SDS011;206;48.782;9.252;2022-07-19T05:50:58;5.70;;;4.43;;
438;SDS011;206;48.782;9.252;2022-07-19T05:53:24;6.27;;;4.90;;
438;SDS011;206;48.782;9.252;2022-07-19T05:55:52;5.53;;;3.83;;
438;SDS011;206;48.782;9.252;2022-07-19T05:58:18;5.80;;;4.77;;
438;SDS011;206;48.782;9.252;2022-07-19T06:00:44;4.07;;;3.87;;
438;SDS011;206;48.782;9.252;2022-07-19T06:03:31;8.73;;;4.30;;
438;SDS011;206;48.782;9.252;2022-07-19T06:05:56;6.07;;;3.67;;
438;SDS011;206;48.782;9.252;2022-07-19T06:08:22;11.73;;;3.73;;
438;SDS011;206;48.782;9.252;2022-07-19T06:10:48;4.50;;;4.10;;
438;SDS011;206;48.782;9.252;2022-07-19T06:13:14;6.23;;;3.77;;
438;SDS011;206;48.782;9.252;2022-07-19T06:15:43;7.00;;;4.83;;
438;SDS011;206;48.782;9.252;2022-07-19T06:18:09;4.27;;;3.50;;
438;SDS011;206;48.782;9.252;2022-07-19T06:20:34;8.10;;;4.30;;
438;SDS011;206;48.782;9.252;2022-07-19T06:23:00;5.50;;;5.20;;
438;SDS011;206;48.782;9.252;2022-07-19T06:25:26;4.83;;;4.60;;
438;SDS011;206;48.782;9.252;2022-07-19T06:27:51;5.60;;;4.30;;
438;SDS011;206;48.782;9.252;2022-07-19T06:30:17;6.40;;;3.80;;
438;SDS011;206;48.782;9.252;2022-07-19T06:32:43;5.57;;;4.40;;
438;SDS011;206;48.782;9.252;2022-07-19T06:35:09;3.90;;;3.33;;
438;SDS011;206;48.782;9.252;2022-07-19T06:37:34;7.80;;;3.70;;
438;SDS011;206;48.782;9.252;2022-07-19T06:40:00;4.90;;;3.93;;
438;SDS011;206;48.782;9.252;2022-07-19T06:42:26;5.63;;;3.17;;
438;SDS011;206;48.782;9.252;2022-07-19T06:44:51;5.23;;;4.07;;
438;SDS011;206;48.782;9.252;2022-07-19T06:47:17;8.73;;;4.10;;
438;SDS011;206;48.782;9.252;2022-07-19T06:49:45;4.70;;;3.73;;
438;SDS011;206;48.782;9.252;2022-07-19T06:52:11;4.07;;;3.60;;
438;SDS011;206;48.782;9.252;2022-07-19T06:54:36;5.37;;;3.40;;
438;SDS011;206;48.782;9.252;2022-07-19T06:57:05;9.10;;;3.70;;
438;SDS011;206;48.782;9.252;2022-07-19T06:59:32;7.27;;;3.80;;
438;SDS011;206;48.782;9.252;2022-07-19T07:01:58;7.40;;;3.77;;
438;SDS011;206;48.782;9.252;2022-07-19T07:04:24;5.20;;;3.73;;
438;SDS011;206;48.782;9.252;2022-07-19T07:06:50;5.53;;;3.23;;
438;SDS011;206;48.782;9.252;2022-07-19T07:09:15;5.23;;;3.80;;
438;SDS011;206;48.782;9.252;2022-07-19T07:11:41;4.90;;;2.93;;
438;SDS011;206;48.782;9.252;2022-07-19T07:14:06;5.80;;;4.10;;
438;SDS011;206;48.782;9.252;2022-07-19T07:16:32;6.03;;;4.00;;
438;SDS011;206;48.782;9.252;2022-07-19T07:18:58;3.63;;;3.20;;
438;SDS011;206;48.782;9.252;2022-07-19T07:21:23;4.13;;;3.13;;
438;SDS011;206;48.782;9.252;2022-07-19T07:23:49;3.50;;;3.07;;
438;SDS011;206;48.782;9.252;2022-07-19T07:26:14;5.20;;;3.97;;
438;SDS011;206;48.782;9.252;2022-07-19T07:28:40;4.00;;;2.73;;
438;SDS011;206;48.782;9.252;2022-07-19T07:31:06;4.50;;;3.03;;
438;SDS011;206;48.782;9.252;2022-07-19T07:33:31;6.70;;;2.80;;
438;SDS011;206;48.782;9.252;2022-07-19T07:35:57;5.53;;;3.67;;
438;SDS011;206;48.782;9.252;2022-07-19T07:38:23;6.43;;;3.40;;
438;SDS011;206;48.782;9.252;2022-07-19T07:40:51;12.77;;;3.73;;
438;SDS011;206;48.782;9.252;2022-07-19T07:43:17;7.20;;;3.67;;
438;SDS011;206;48.782;9.252;2022-07-19T07:45:42;3.97;;;2.53;;
438;SDS011;206;48.782;9.252;2022-07-19T07:48:08;6.20;;;3.50;;
438;SDS011;206;48.782;9.252;2022-07-19T07:50:34;8.10;;;3.20;;
438;SDS011;206;48.782;9.252;2022-07-19T07:52:59;8.40;;;3.63;;
438;SDS011;206;48.782;9.252;2022-07-19T07:55:25;4.20;;;3.27;;
438;SDS011;206;48.782;9.252;2022-07-19T07:57:51;4.00;;;3.00;;
438;SDS011;206;48.782;9.252;2022-07-19T08:00:16;5.90;;;4.03;;
438;SDS011;206;48.782;9.252;2022-07-19T08:02:44;7.63;;;3.80;;
438;SDS011;206;48.782;9.252;2022-07-19T08:05:10;4.70;;;3.33;;
438;SDS011;206;48.782;9.252;2022-07-19T08:07:37;9.70;;;4.60;;
438;SDS011;206;48.782;9.252;2022-07-19T08:10:03;9.23;;;3.90;;
438;SDS011;206;48.782;9.252;2022-07-19T08:12:30;5.27;;;3.73;;
438;SDS011;206;48.782;9.252;2022-07-19T08:14:56;6.10;;;3.50;;
438;SDS011;206;48.782;9.252;2022-07-19T08:17:22;6.70;;;4.30;;
438;SDS011;206;48.782;9.252;2022-07-19T08:19:48;10.83;;;3.47;;
438;SDS011;206;48.782;9.252;2022-07-19T08:22:17;9.60;;;3.57;;
438;SDS011;206;48.782;9.252;2022-07-19T08:24:46;5.27;;;3.13;;
438;SDS011;206;48.782;9.252;2022-07-19T08:27:12;8.00;;;3.47;;
438;SDS011;206;48.782;9.252;2022-07-19T08:29:37;4.00;;;2.90;;
438;SDS011;206;48.782;9.252;2022-07-19T08:32:04;8.70;;;2.87;;
438;SDS011;206;48.782;9.252;2022-07-19T08:34:30;3.53;;;2.23;;
438;SDS011;206;48.782;9.252;2022-07-19T08:36:55;3.20;;;2.67;;
438;SDS011;206;48.782;9.252;2022-07-19T08:39:21;5.57;;;2.77;;
438;SDS011;206;48.782;9.252;2022-07-19T08:41:47;5.70;;;3.20;;
438;SDS011;206;48.782;9.252;2022-07-19T08:44:13;5.80;;;3.13;;
438;SDS011;206;48.782;9.252;2022-07-19T08:46:41;4.27;;;2.43;;
438;SDS011;206;48.782;9.252;2022-07-19T08:49:10;19.23;;;2.87;;
438;SDS011;206;48.782;9.252;2022-07-19T08:51:36;2.73;;;2.27;;
438;SDS011;206;48.782;9.252;2022-07-19T08:54:02;2.63;;;2.17;;
438;SDS011;206;48.782;9.252;2022-07-19T08:56:28;5.30;;;2.40;;
438;SDS011;206;48.782;9.252;2022-07-19T08:59:13;3.40;;;2.27;;
438;SDS011;206;48.782;9.252;2022-07-19T09:01:39;2.47;;;2.10;;
438;SDS011;206;48.782;9.252;2022-07-19T09:06:38;2.33;;;2.03;;
438;SDS011;206;48.782;9.252;2022-07-19T09:09:04;3.90;;;1.80;;
438;SDS011;206;48.782;9.252;2022-07-19T09:11:40;5.67;;;2.13;;
438;SDS011;206;48.782;9.252;2022-07-19T09:14:26;5.37;;;2.30;;
438;SDS011;206;48.782;9.252;2022-07-19T09:19:20;8.03;;;2.50;;
438;SDS011;206;48.782;9.252;2022-07-19T09:21:54;5.03;;;1.97;;
438;SDS011;206;48.782;9.252;2022-07-19T09:24:27;3.80;;;3.17;;
438;SDS011;206;48.782;9.252;2022-07-19T09:27:02;3.17;;;2.10;;
438;SDS011;206;48.782;9.252;2022-07-19T09:29:30;2.53;;;2.33;;
438;SDS011;206;48.782;9.252;2022-07-19T09:31:57;5.90;;;2.20;;
438;SDS011;206;48.782;9.252;2022-07-19T09:34:33;6.27;;;2.30;;
438;SDS011;206;48.782;9.252;2022-07-19T09:39:44;7.20;;;2.23;;
438;SDS011;206;48.782;9.252;2022-07-19T09:42:11;2.27;;;2.00;;
438;SDS011;206;48.782;9.252;2022-07-19T09:44:38;3.70;;;2.60;;
438;SDS011;206;48.782;9.252;2022-07-19T09:47:04;3.30;;;2.57;;
438;SDS011;206;48.782;9.252;2022-07-19T09:49:30;3.07;;;2.20;;
438;SDS011;206;48.782;9.252;2022-07-19T09:51:55;2.70;;;2.60;;
438;SDS011;206;48.782;9.252;2022-07-19T09:54:22;2.50;;;1.87;;
438;SDS011;206;48.782;9.252;2022-07-19T09:56:50;3.23;;;3.00;;
438;SDS011;206;48.782;9.252;2022-07-19T09:59:17;3.43;;;2.60;;
438;SDS011;206;48.782;9.252;2022-07-19T10:01:43;2.83;;;2.53;;
438;SDS011;206;48.782;9.252;2022-07-19T10:04:14;5.30;;;2.90;;
438;SDS011;206;48.782;9.252;2022-07-19T10:06:42;3.93;;;2.90;;
438;SDS011;206;48.782;9.252;2022-07-19T10:09:10;8.43;;;2.30;;
438;SDS011;206;48.782;9.252;2022-07-19T10:11:37;4.90;;;2.90;;
438;SDS011;206;48.782;9.252;2022-07-19T10:14:04;3.33;;;3.13;;
438;SDS011;206;48.782;9.252;2022-07-19T10:22:05;7.23;;;2.73;;
438;SDS011;206;48.782;9.252;2022-07-19T10:27:12;9.10;;;2.50;;
438;SDS011;206;48.782;9.252;2022-07-19T10:29:39;6.73;;;2.60;;
438;SDS011;206;48.782;9.252;2022-07-19T10:32:06;3.63;;;2.30;;
438;SDS011;206;48.782;9.252;2022-07-19T10:34:34;4.00;;;2.70;;
438;SDS011;206;48.782;9.252;2022-07-19T10:37:00;4.63;;;2.60;;
438;SDS011;206;48.782;9.252;2022-07-19T10:39:30;3.00;;;2.70;;
438;SDS011;206;48.782;9.252;2022-07-19T10:50:07;3.60;;;3.00;;
438;SDS011;206;48.782;9.252;2022-07-19T10:52:35;4.97;;;2.13;;
438;SDS011;206;48.782;9.252;2022-07-19T11:00:28;4.90;;;2.50;;
438;SDS011;206;48.782;9.252;2022-07-19T11:05:46;4.70;;;2.73;;
438;SDS011;206;48.782;9.252;2022-07-19T11:08:17;8.80;;;3.07;;
438;SDS011;206;48.782;9.252;2022-07-19T11:11:01;6.23;;;2.57;;
438;SDS011;206;48.782;9.252;2022-07-19T11:13:28;11.63;;;3.10;;
438;SDS011;206;48.782;9.252;2022-07-19T11:15:56;2.80;;;2.60;;
438;SDS011;206;48.782;9.252;2022-07-19T11:18:22;6.20;;;2.97;;
438;SDS011;206;48.782;9.252;2022-07-19T11:20:48;13.60;;;2.90;;
438;SDS011;206;48.782;9.252;2022-07-19T11:23:17;4.03;;;2.70;;
438;SDS011;206;48.782;9.252;2022-07-19T11:25:43;5.43;;;2.73;;
438;SDS011;206;48.782;9.252;2022-07-19T11:28:19;2.37;;;2.17;;
438;SDS011;206;48.782;9.252;2022-07-19T11:30:45;4.00;;;2.67;;
438;SDS011;206;48.782;9.252;2022-07-19T11:33:11;3.83;;;3.57;;
438;SDS011;206;48.782;9.252;2022-07-19T11:35:52;4.20;;;2.80;;
438;SDS011;206;48.782;9.252;2022-07-19T11:41:28;18.27;;;3.43;;
438;SDS011;206;48.782;9.252;2022-07-19T11:43:56;2.43;;;2.23;;
438;SDS011;206;48.782;9.252;2022-07-19T11:46:24;2.97;;;2.70;;
438;SDS011;206;48.782;9.252;2022-07-19T11:48:59;2.57;;;2.37;;
438;SDS011;206;48.782;9.252;2022-07-19T11:51:26;4.30;;;3.30;;
438;SDS011;206;48.782;9.252;2022-07-19T11:53:54;3.97;;;2.67;;
438;SDS011;206;48.782;9.252;2022-07-19T11:56:21;3.13;;;2.93;;
438;SDS011;206;48.782;9.252;2022-07-19T11:58:52;4.20;;;2.50;;
438;SDS011;206;48.782;9.252;2022-07-19T12:01:26;6.33;;;2.70;;
438;SDS011;206;48.782;9.252;2022-07-19T12:03:56;5.70;;;2.70;;
438;SDS011;206;48.782;9.252;2022-07-19T12:06:38;4.50;;;2.67;;
438;SDS011;206;48.782;9.252;2022-07-19T12:09:12;3.70;;;3.10;;
438;SDS011;206;48.782;9.252;2022-07-19T12:11:44;3.80;;;3.00;;
438;SDS011;206;48.782;9.252;2022-07-19T12:16:44;6.13;;;3.23;;
438;SDS011;206;48.782;9.252;2022-07-19T12:19:10;4.30;;;2.93;;
438;SDS011;206;48.782;9.252;2022-07-19T12:21:42;9.73;;;3.10;;
438;SDS011;206;48.782;9.252;2022-07-19T12:29:18;5.77;;;2.80;;
438;SDS011;206;48.782;9.252;2022-07-19T12:31:45;4.13;;;2.90;;
438;SDS011;206;48.782;9.252;2022-07-19T12:34:12;9.40;;;3.30;;
438;SDS011;206;48.782;9.252;2022-07-19T12:36:39;4.40;;;3.17;;
438;SDS011;206;48.782;9.252;2022-07-19T12:39:05;6.73;;;3.43;;
438;SDS011;206;48.782;9.252;2022-07-19T12:41:52;7.97;;;2.63;;
438;SDS011;206;48.782;9.252;2022-07-19T12:44:32;3.87;;;2.80;;
438;SDS011;206;48.782;9.252;2022-07-19T12:46:59;3.23;;;2.53;;
438;SDS011;206;48.782;9.252;2022-07-19T12:49:25;5.03;;;2.90;;
438;SDS011;206;48.782;9.252;2022-07-19T12:52:04;6.10;;;2.50;;
438;SDS011;206;48.782;9.252;2022-07-19T12:54:30;6.30;;;3.20;;
438;SDS011;206;48.782;9.252;2022-07-19T12:56:55;4.00;;;2.70;;
438;SDS011;206;48.782;9.252;2022-07-19T12:59:21;4.50;;;3.10;;
438;SDS011;206;48.782;9.252;2022-07-19T13:02:12;7.40;;;3.73;;
438;SDS011;206;48.782;9.252;2022-07-19T13:04:42;2.60;;;2.40;;
438;SDS011;206;48.782;9.252;2022-07-19T13:07:09;3.73;;;3.53;;
438;SDS011;206;48.782;9.252;2022-07-19T13:09:36;11.63;;;3.33;;
438;SDS011;206;48.782;9.252;2022-07-19T13:12:04;8.80;;;2.40;;
438;SDS011;206;48.782;9.252;2022-07-19T13:14:32;8.43;;;3.70;;
438;SDS011;206;48.782;9.252;2022-07-19T13:16:59;10.57;;;4.10;;
438;SDS011;206;48.782;9.252;2022-07-19T13:19:25;7.23;;;3.33;;
438;SDS011;206;48.782;9.252;2022-07-19T13:21:51;4.13;;;2.60;;
438;SDS011;206;48.782;9.252;2022-07-19T13:24:18;11.67;;;6.77;;
438;SDS011;206;48.782;9.252;2022-07-19T13:26:44;6.00;;;2.97;;
438;SDS011;206;48.782;9.252;2022-07-19T13:29:09;4.10;;;2.60;;
438;SDS011;206;48.782;9.252;2022-07-19T13:31:35;3.73;;;3.23;;
438;SDS011;206;48.782;9.252;2022-07-19T13:34:01;6.63;;;2.70;;
438;SDS011;206;48.782;9.252;2022-07-19T13:36:28;10.43;;;3.60;;
438;SDS011;206;48.782;9.252;2022-07-19T13:38:54;5.20;;;2.83;;
438;SDS011;206;48.782;9.252;2022-07-19T13:41:19;6.90;;;2.83;;
438;SDS011;206;48.782;9.252;2022-07-19T13:43:45;5.27;;;3.50;;
438;SDS011;206;48.782;9.252;2022-07-19T13:46:11;5.60;;;2.63;;
438;SDS011;206;48.782;9.252;2022-07-19T13:48:37;4.40;;;3.07;;
438;SDS011;206;48.782;9.252;2022-07-19T13:51:04;9.13;;;2.70;;
438;SDS011;206;48.782;9.252;2022-07-19T13:53:30;4.40;;;3.10;;
438;SDS011;206;48.782;9.252;2022-07-19T13:55:56;4.93;;;2.93;;
438;SDS011;206;48.782;9.252;2022-07-19T13:58:21;8.47;;;3.40;;
438;SDS011;206;48.782;9.252;2022-07-19T14:00:47;4.83;;;3.20;;
438;SDS011;206;48.782;9.252;2022-07-19T14:03:13;4.90;;;2.93;;
438;SDS011;206;48.782;9.252;2022-07-19T14:05:42;15.57;;;3.10;;
438;SDS011;206;48.782;9.252;2022-07-19T14:08:08;3.10;;;2.77;;
438;SDS011;206;48.782;9.252;2022-07-19T14:10:35;4.37;;;3.03;;
438;SDS011;206;48.782;9.252;2022-07-19T14:13:00;3.43;;;2.90;;
438;SDS011;206;48.782;9.252;2022-07-19T14:15:26;4.33;;;2.73;;
438;SDS011;206;48.782;9.252;2022-07-19T14:17:52;6.83;;;2.83;;
438;SDS011;206;48.782;9.252;2022-07-19T14:20:17;4.30;;;2.57;;
438;SDS011;206;48.782;9.252;2022-07-19T14:22:43;3.83;;;2.20;;
438;SDS011;206;48.782;9.252;2022-07-19T14:25:10;4.23;;;3.20;;
438;SDS011;206;48.782;9.252;2022-07-19T14:27:35;3.40;;;2.93;;
438;SDS011;206;48.782;9.252;2022-07-19T14:30:01;4.30;;;2.83;;
438;SDS011;206;48.782;9.252;2022-07-19T14:32:27;5.40;;;3.13;;
438;SDS011;206;48.782;9.252;2022-07-19T14:34:52;8.27;;;3.27;;
438;SDS011;206;48.782;9.252;2022-07-19T14:37:18;3.70;;;2.70;;
438;SDS011;206;48.782;9.252;2022-07-19T14:39:43;4.07;;;3.10;;
438;SDS011;206;48.782;9.252;2022-07-19T14:42:09;4.97;;;2.60;;
438;SDS011;206;48.782;9.252;2022-07-19T14:44:35;3.67;;;3.13;;
438;SDS011;206;48.782;9.252;2022-07-19T14:47:00;4.13;;;3.10;;
438;SDS011;206;48.782;9.252;2022-07-19T14:49:26;5.97;;;3.00;;
438;SDS011;206;48.782;9.252;2022-07-19T14:51:52;8.33;;;3.80;;
438;SDS011;206;48.782;9.252;2022-07-19T14:54:18;7.10;;;3.30;;
438;SDS011;206;48.782;9.252;2022-07-19T14:56:44;4.67;;;3.20;;
438;SDS011;206;48.782;9.252;2022-07-19T14:59:09;10.83;;;3.40;;
438;SDS011;206;48.782;9.252;2022-07-19T15:01:35;2.70;;;2.20;;
438;SDS011;206;48.782;9.252;2022-07-19T15:04:00;3.57;;;2.90;;
438;SDS011;206;48.782;9.252;2022-07-19T15:06:26;4.73;;;3.13;;
438;SDS011;206;48.782;9.252;2022-07-19T15:08:52;4.87;;;3.00;;
438;SDS011;206;48.782;9.252;2022-07-19T15:11:17;12.60;;;3.83;;
438;SDS011;206;48.782;9.252;2022-07-19T15:13:43;3.50;;;2.83;;
438;SDS011;206;48.782;9.252;2022-07-19T15:16:09;3.80;;;3.00;;
438;SDS011;206;48.782;9.252;2022-07-19T15:18:34;2.93;;;2.70;;
438;SDS011;206;48.782;9.252;2022-07-19T15:21:00;5.00;;;2.37;;
438;SDS011;206;48.782;9.252;2022-07-19T15:23:26;3.30;;;3.13;;
438;SDS011;206;48.782;9.252;2022-07-19T15:25:51;2.70;;;2.50;;
438;SDS011;206;48.782;9.252;2022-07-19T15:28:17;3.03;;;2.83;;
438;SDS011;206;48.782;9.252;2022-07-19T15:30:43;4.57;;;2.90;;
438;SDS011;206;48.782;9.252;2022-07-19T15:33:09;2.93;;;2.73;;
438;SDS011;206;48.782;9.252;2022-07-19T15:35:34;5.57;;;2.73;;
438;SDS011;206;48.782;9.252;2022-07-19T15:38:00;3.13;;;2.80;;
438;SDS011;206;48.782;9.252;2022-07-19T15:40:26;3.37;;;2.50;;
438;SDS011;206;48.782;9.252;2022-07-19T15:42:51;4.50;;;3.20;;
438;SDS011;206;48.782;9.252;2022-07-19T15:45:17;5.23;;;2.80;;
438;SDS011;206;48.782;9.252;2022-07-19T15:47:45;3.03;;;2.77;;
438;SDS011;206;48.782;9.252;2022-07-19T15:50:12;4.73;;;3.20;;
438;SDS011;206;48.782;9.252;2022-07-19T15:52:39;5.43;;;2.30;;
438;SDS011;206;48.782;9.252;2022-07-19T15:55:05;2.80;;;2.60;;
438;SDS011;206;48.782;9.252;2022-07-19T15:57:32;5.47;;;2.80;;
438;SDS011;206;48.782;9.252;2022-07-19T15:59:58;4.00;;;2.80;;
438;SDS011;206;48.782;9.252;2022-07-19T16:02:23;4.93;;;2.60;;
438;SDS011;206;48.782;9.252;2022-07-19T16:04:50;3.43;;;3.23;;
438;SDS011;206;48.782;9.252;2022-07-19T16:07:16;3.60;;;3.13;;
438;SDS011;206;48.782;9.252;2022-07-19T16:09:42;2.83;;;2.63;;
438;SDS011;206;48.782;9.252;2022-07-19T16:12:10;3.30;;;3.10;;
438;SDS011;206;48.782;9.252;2022-07-19T16:14:37;5.10;;;2.57;;
438;SDS011;206;48.782;9.252;2022-07-19T16:17:03;3.23;;;2.57;;
438;SDS011;206;48.782;9.252;2022-07-19T16:19:29;2.83;;;2.63;;
438;SDS011;206;48.782;9.252;2022-07-19T16:21:55;4.10;;;3.23;;
438;SDS011;206;48.782;9.252;2022-07-19T16:24:21;4.67;;;3.43;;
438;SDS011;206;48.782;9.252;2022-07-19T16:26:46;2.83;;;2.10;;